sensor_id;sensor_type;location;lat;lon;timestamp;temperature;humidity
2929;DHT22;1474;51.460;7.150;2022-08-21T00:01:07;18.60;99.90
2929;DHT22;1474;51.460;7.150;2022-08-21T00:03:35;18.60;99.90
2929;DHT22;1474;51.460;7.150;2022-08-21T00:06:02;18.60;99.90
2929;DHT22;1474;51.460;7.150;2022-08-21T00:08:28;18.60;99.90
2929;DHT22;1474;51.460;7.150;2022-08-21T00:10:54;18.60;99.90
2929;DHT22;1474;51.460;7.150;2022-08-21T00:13:20;18.60;99.90
2929;DHT22;1474;51.460;7.150;2022-08-21T00:15:47;18.60;99.90
2929;DHT22;1474;51.460;7.150;2022-08-21T00:18:13;18.60;99.90
2929;DHT22;1474;51.460;7.150;2022-08-21T00:20:40;18.60;99.90
2929;DHT22;1474;51.460;7.150;2022-08-21T00:23:07;18.50;99.90
2929;DHT22;1474;51.460;7.150;2022-08-21T00:25:33;18.50;99.90
2929;DHT22;1474;51.460;7.150;2022-08-21T00:27:59;18.50;99.90
2929;DHT22;1474;51.460;7.150;2022-08-21T00:30:25;18.40;99.90
2929;DHT22;1474;51.460;7.150;2022-08-21T00:32:52;18.40;99.90
2929;DHT22;1474;51.460;7.150;2022-08-21T00:35:21;18.30;99.90
2929;DHT22;1474;51.460;7.150;2022-08-21T00:37:47;18.30;99.90
2929;DHT22;1474;51.460;7.150;2022-08-21T00:40:17;18.30;99.90
2929;DHT22;1474;51.460;7.150;2022-08-21T00:42:43;18.20;99.90
2929;DHT22;1474;51.460;7.150;2022-08-21T00:45:14;18.20;99.90
2929;DHT22;1474;51.460;7.150;2022-08-21T00:47:39;18.20;99.90
2929;DHT22;1474;51.460;7.150;2022-08-21T00:50:07;18.20;99.90
2929;DHT22;1474;51.460;7.150;2022-08-21T00:52:34;18.10;99.90
2929;DHT22;1474;51.460;7.150;2022-08-21T00:55:01;18.00;99.90
2929;DHT22;1474;51.460;7.150;2022-08-21T00:57:34;18.00;99.90
2929;DHT22;1474;51.460;7.150;2022-08-21T01:00:06;18.00;99.90
2929;DHT22;1474;51.460;7.150;2022-08-21T01:02:32;17.90;99.90
2929;DHT22;1474;51.460;7.150;2022-08-21T01:04:58;17.90;99.90
2929;DHT22;1474;51.460;7.150;2022-08-21T01:07:24;18.00;99.90
2929;DHT22;1474;51.460;7.150;2022-08-21T01:09:51;17.90;99.90
2929;DHT22;1474;51.460;7.150;2022-08-21T01:12:18;17.90;99.90
2929;DHT22;1474;51.460;7.150;2022-08-21T01:14:44;17.90;99.90
2929;DHT22;1474;51.460;7.150;2022-08-21T01:17:11;17.90;99.90
2929;DHT22;1474;51.460;7.150;2022-08-21T01:19:38;18.00;99.90
2929;DHT22;1474;51.460;7.150;2022-08-21T01:22:04;18.00;99.90
2929;DHT22;1474;51.460;7.150;2022-08-21T01:24:30;18.00;99.90
2929;DHT22;1474;51.460;7.150;2022-08-21T01:26:59;18.00;99.90
2929;DHT22;1474;51.460;7.150;2022-08-21T01:29:57;18.00;99.90
2929;DHT22;1474;51.460;7.150;2022-08-21T01:32:25;17.90;99.90
2929;DHT22;1474;51.460;7.150;2022-08-21T01:34:51;17.90;99.90
2929;DHT22;1474;51.460;7.150;2022-08-21T01:37:19;17.90;99.90
2929;DHT22;1474;51.460;7.150;2022-08-21T01:39:45;17.90;99.90
2929;DHT22;1474;51.460;7.150;2022-08-21T01:42:12;17.90;99.90
2929;DHT22;1474;51.460;7.150;2022-08-21T01:44:38;17.90;99.90
2929;DHT22;1474;51.460;7.150;2022-08-21T01:47:06;17.80;99.90
2929;DHT22;1474;51.460;7.150;2022-08-21T01:49:34;17.80;99.90
2929;DHT22;1474;51.460;7.150;2022-08-21T01:51:59;17.80;99.90
2929;DHT22;1474;51.460;7.150;2022-08-21T01:54:25;17.70;99.90
2929;DHT22;1474;51.460;7.150;2022-08-21T01:56:52;17.70;99.90
2929;DHT22;1474;51.460;7.150;2022-08-21T01:59:18;17.70;99.90
2929;DHT22;1474;51.460;7.150;2022-08-21T02:01:44;17.70;99.90
2929;DHT22;1474;51.460;7.150;2022-08-21T02:04:10;17.60;99.90
2929;DHT22;1474;51.460;7.150;2022-08-21T02:06:36;17.50;99.90
2929;DHT22;1474;51.460;7.150;2022-08-21T02:09:07;17.50;99.90
2929;DHT22;1474;51.460;7.150;2022-08-21T02:11:33;17.40;99.90
2929;DHT22;1474;51.460;7.150;2022-08-21T02:13:59;17.40;99.90
2929;DHT22;1474;51.460;7.150;2022-08-21T02:16:25;17.30;99.90
2929;DHT22;1474;51.460;7.150;2022-08-21T02:18:51;17.20;99.90
2929;DHT22;1474;51.460;7.150;2022-08-21T02:21:17;17.20;99.90
2929;DHT22;1474;51.460;7.150;2022-08-21T02:23:42;17.20;99.90
2929;DHT22;1474;51.460;7.150;2022-08-21T02:26:09;17.10;99.90
2929;DHT22;1474;51.460;7.150;2022-08-21T02:28:35;17.10;99.90
2929;DHT22;1474;51.460;7.150;2022-08-21T02:31:02;17.10;99.90
2929;DHT22;1474;51.460;7.150;2022-08-21T02:33:28;17.10;99.90
2929;DHT22;1474;51.460;7.150;2022-08-21T02:35:55;17.10;99.90
2929;DHT22;1474;51.460;7.150;2022-08-21T02:38:30;17.00;99.90
2929;DHT22;1474;51.460;7.150;2022-08-21T02:40:56;17.00;99.90
2929;DHT22;1474;51.460;7.150;2022-08-21T02:43:24;17.00;99.90
2929;DHT22;1474;51.460;7.150;2022-08-21T02:45:52;17.00;99.90
2929;DHT22;1474;51.460;7.150;2022-08-21T02:48:21;16.90;99.90
2929;DHT22;1474;51.460;7.150;2022-08-21T02:50:53;16.90;99.90
2929;DHT22;1474;51.460;7.150;2022-08-21T02:53:20;16.90;99.90
2929;DHT22;1474;51.460;7.150;2022-08-21T02:55:48;16.80;99.90
2929;DHT22;1474;51.460;7.150;2022-08-21T02:58:17;16.80;99.90
2929;DHT22;1474;51.460;7.150;2022-08-21T03:00:44;16.70;99.90
2929;DHT22;1474;51.460;7.150;2022-08-21T03:03:10;16.70;99.90
2929;DHT22;1474;51.460;7.150;2022-08-21T03:05:38;16.70;99.90
2929;DHT22;1474;51.460;7.150;2022-08-21T03:08:05;16.70;99.90
2929;DHT22;1474;51.460;7.150;2022-08-21T03:10:35;16.70;99.90
2929;DHT22;1474;51.460;7.150;2022-08-21T03:13:01;16.60;99.90
2929;DHT22;1474;51.460;7.150;2022-08-21T03:15:29;16.60;99.90
2929;DHT22;1474;51.460;7.150;2022-08-21T03:17:55;16.60;99.90
2929;DHT22;1474;51.460;7.150;2022-08-21T03:20:23;16.60;99.90
2929;DHT22;1474;51.460;7.150;2022-08-21T03:22:50;16.50;99.90
2929;DHT22;1474;51.460;7.150;2022-08-21T03:25:17;16.50;99.90
2929;DHT22;1474;51.460;7.150;2022-08-21T03:27:43;16.50;99.90
2929;DHT22;1474;51.460;7.150;2022-08-21T03:30:10;16.50;99.90
2929;DHT22;1474;51.460;7.150;2022-08-21T03:32:36;16.50;99.90
2929;DHT22;1474;51.460;7.150;2022-08-21T03:35:03;16.50;99.90
2929;DHT22;1474;51.460;7.150;2022-08-21T03:37:29;16.50;99.90
2929;DHT22;1474;51.460;7.150;2022-08-21T03:39:55;16.40;99.90
2929;DHT22;1474;51.460;7.150;2022-08-21T03:42:21;16.40;99.90
2929;DHT22;1474;51.460;7.150;2022-08-21T03:44:47;16.40;99.90
2929;DHT22;1474;51.460;7.150;2022-08-21T03:47:12;16.40;99.90
2929;DHT22;1474;51.460;7.150;2022-08-21T03:49:38;16.40;99.90
2929;DHT22;1474;51.460;7.150;2022-08-21T03:52:04;16.40;99.90
2929;DHT22;1474;51.460;7.150;2022-08-21T03:54:30;16.40;99.90
2929;DHT22;1474;51.460;7.150;2022-08-21T03:56:56;16.40;99.90
2929;DHT22;1474;51.460;7.150;2022-08-21T03:59:22;16.40;99.90
2929;DHT22;1474;51.460;7.150;2022-08-21T04:02:00;16.40;99.90
2929;DHT22;1474;51.460;7.150;2022-08-21T04:04:27;16.40;99.90
2929;DHT22;1474;51.460;7.150;2022-08-21T04:06:53;16.30;99.90
2929;DHT22;1474;51.460;7.150;2022-08-21T04:09:19;16.30;99.90
2929;DHT22;1474;51.460;7.150;2022-08-21T04:11:45;16.30;99.90
2929;DHT22;1474;51.460;7.150;2022-08-21T04:14:12;16.30;99.90
2929;DHT22;1474;51.460;7.150;2022-08-21T04:16:40;16.30;99.90
2929;DHT22;1474;51.460;7.150;2022-08-21T04:19:07;16.20;99.90
2929;DHT22;1474;51.460;7.150;2022-08-21T04:21:33;16.20;99.90
2929;DHT22;1474;51.460;7.150;2022-08-21T04:23:59;16.20;99.90
2929;DHT22;1474;51.460;7.150;2022-08-21T04:26:25;16.10;99.90
2929;DHT22;1474;51.460;7.150;2022-08-21T04:28:51;16.10;99.90
2929;DHT22;1474;51.460;7.150;2022-08-21T04:31:18;16.00;99.90
2929;DHT22;1474;51.460;7.150;2022-08-21T04:33:43;16.00;99.90
2929;DHT22;1474;51.460;7.150;2022-08-21T04:36:10;15.90;99.90
2929;DHT22;1474;51.460;7.150;2022-08-21T04:38:37;16.00;99.90
2929;DHT22;1474;51.460;7.150;2022-08-21T04:41:02;16.00;99.90
2929;DHT22;1474;51.460;7.150;2022-08-21T04:43:29;16.00;99.90
2929;DHT22;1474;51.460;7.150;2022-08-21T04:45:55;16.00;99.90
2929;DHT22;1474;51.460;7.150;2022-08-21T04:48:22;16.00;99.90
2929;DHT22;1474;51.460;7.150;2022-08-21T04:53:50;16.00;99.90
2929;DHT22;1474;51.460;7.150;2022-08-21T04:56:22;16.00;99.90
2929;DHT22;1474;51.460;7.150;2022-08-21T04:58:51;16.00;99.90
2929;DHT22;1474;51.460;7.150;2022-08-21T05:01:20;16.00;99.90
2929;DHT22;1474;51.460;7.150;2022-08-21T05:03:47;16.00;99.90
2929;DHT22;1474;51.460;7.150;2022-08-21T05:06:15;16.10;99.90
2929;DHT22;1474;51.460;7.150;2022-08-21T05:08:43;16.10;99.90
2929;DHT22;1474;51.460;7.150;2022-08-21T05:11:11;16.10;99.90
2929;DHT22;1474;51.460;7.150;2022-08-21T05:13:37;16.20;99.90
2929;DHT22;1474;51.460;7.150;2022-08-21T05:16:03;16.20;99.90
2929;DHT22;1474;51.460;7.150;2022-08-21T05:18:28;16.30;99.90
2929;DHT22;1474;51.460;7.150;2022-08-21T05:20:54;16.40;99.90
2929;DHT22;1474;51.460;7.150;2022-08-21T05:23:20;16.40;99.90
2929;DHT22;1474;51.460;7.150;2022-08-21T05:25:46;16.40;99.90
2929;DHT22;1474;51.460;7.150;2022-08-21T05:28:12;16.40;99.90
2929;DHT22;1474;51.460;7.150;2022-08-21T05:30:38;16.40;99.90
2929;DHT22;1474;51.460;7.150;2022-08-21T05:33:05;16.40;99.90
2929;DHT22;1474;51.460;7.150;2022-08-21T05:35:32;16.40;99.90
2929;DHT22;1474;51.460;7.150;2022-08-21T05:37:59;16.40;99.90
2929;DHT22;1474;51.460;7.150;2022-08-21T05:40:25;16.40;99.90
2929;DHT22;1474;51.460;7.150;2022-08-21T05:42:52;16.50;99.90
2929;DHT22;1474;51.460;7.150;2022-08-21T05:45:19;16.50;99.90
2929;DHT22;1474;51.460;7.150;2022-08-21T05:47:44;16.50;99.90
2929;DHT22;1474;51.460;7.150;2022-08-21T05:50:10;16.60;99.90
2929;DHT22;1474;51.460;7.150;2022-08-21T05:52:36;16.60;99.90
2929;DHT22;1474;51.460;7.150;2022-08-21T05:55:03;16.70;99.90
2929;DHT22;1474;51.460;7.150;2022-08-21T05:57:28;16.70;99.90
2929;DHT22;1474;51.460;7.150;2022-08-21T05:59:54;16.80;99.90
2929;DHT22;1474;51.460;7.150;2022-08-21T06:02:21;16.80;99.90
2929;DHT22;1474;51.460;7.150;2022-08-21T06:04:47;16.90;99.90
2929;DHT22;1474;51.460;7.150;2022-08-21T06:07:13;17.00;99.90
2929;DHT22;1474;51.460;7.150;2022-08-21T06:09:39;17.00;99.90
2929;DHT22;1474;51.460;7.150;2022-08-21T06:12:10;17.00;99.90
2929;DHT22;1474;51.460;7.150;2022-08-21T06:14:37;17.10;99.90
2929;DHT22;1474;51.460;7.150;2022-08-21T06:17:08;17.10;99.90
2929;DHT22;1474;51.460;7.150;2022-08-21T06:19:34;17.20;99.90
2929;DHT22;1474;51.460;7.150;2022-08-21T06:22:00;17.30;99.90
2929;DHT22;1474;51.460;7.150;2022-08-21T06:24:26;17.40;99.90
2929;DHT22;1474;51.460;7.150;2022-08-21T06:26:52;17.40;99.90
2929;DHT22;1474;51.460;7.150;2022-08-21T06:29:18;17.50;99.90
2929;DHT22;1474;51.460;7.150;2022-08-21T06:31:46;17.60;99.90
2929;DHT22;1474;51.460;7.150;2022-08-21T06:34:12;17.70;99.90
2929;DHT22;1474;51.460;7.150;2022-08-21T06:36:38;17.80;99.90
2929;DHT22;1474;51.460;7.150;2022-08-21T06:39:04;17.90;99.90
2929;DHT22;1474;51.460;7.150;2022-08-21T06:41:30;18.00;99.90
2929;DHT22;1474;51.460;7.150;2022-08-21T06:43:57;18.10;99.90
2929;DHT22;1474;51.460;7.150;2022-08-21T06:46:28;18.20;99.90
2929;DHT22;1474;51.460;7.150;2022-08-21T06:48:54;18.20;99.90
2929;DHT22;1474;51.460;7.150;2022-08-21T06:51:20;18.30;99.90
2929;DHT22;1474;51.460;7.150;2022-08-21T06:53:46;18.30;99.90
2929;DHT22;1474;51.460;7.150;2022-08-21T06:56:12;18.40;99.90
2929;DHT22;1474;51.460;7.150;2022-08-21T06:58:38;18.50;99.90
2929;DHT22;1474;51.460;7.150;2022-08-21T07:01:04;18.60;99.90
2929;DHT22;1474;51.460;7.150;2022-08-21T07:03:34;18.60;99.90
2929;DHT22;1474;51.460;7.150;2022-08-21T07:06:01;18.70;99.90
2929;DHT22;1474;51.460;7.150;2022-08-21T07:08:28;18.80;99.90
2929;DHT22;1474;51.460;7.150;2022-08-21T07:10:56;18.90;99.90
2929;DHT22;1474;51.460;7.150;2022-08-21T07:13:22;19.00;99.90
2929;DHT22;1474;51.460;7.150;2022-08-21T07:15:48;19.00;99.90
2929;DHT22;1474;51.460;7.150;2022-08-21T07:18:14;19.00;99.90
2929;DHT22;1474;51.460;7.150;2022-08-21T07:20:41;19.00;99.90
2929;DHT22;1474;51.460;7.150;2022-08-21T07:23:10;19.10;99.90
2929;DHT22;1474;51.460;7.150;2022-08-21T07:25:37;19.10;99.90
2929;DHT22;1474;51.460;7.150;2022-08-21T07:28:03;19.20;99.90
2929;DHT22;1474;51.460;7.150;2022-08-21T07:30:29;19.20;99.90
2929;DHT22;1474;51.460;7.150;2022-08-21T07:32:55;19.20;99.90
2929;DHT22;1474;51.460;7.150;2022-08-21T07:35:21;19.30;99.90
2929;DHT22;1474;51.460;7.150;2022-08-21T07:37:50;19.30;99.90
2929;DHT22;1474;51.460;7.150;2022-08-21T07:40:17;19.40;99.90
2929;DHT22;1474;51.460;7.150;2022-08-21T07:42:47;19.50;99.90
2929;DHT22;1474;51.460;7.150;2022-08-21T07:45:15;19.60;99.90
2929;DHT22;1474;51.460;7.150;2022-08-21T07:47:41;19.70;99.90
2929;DHT22;1474;51.460;7.150;2022-08-21T07:50:08;19.70;99.90
2929;DHT22;1474;51.460;7.150;2022-08-21T07:52:34;19.80;99.90
2929;DHT22;1474;51.460;7.150;2022-08-21T07:54:59;19.90;99.90
2929;DHT22;1474;51.460;7.150;2022-08-21T07:57:25;19.90;99.90
2929;DHT22;1474;51.460;7.150;2022-08-21T07:59:51;20.00;99.90
2929;DHT22;1474;51.460;7.150;2022-08-21T08:02:28;20.00;99.90
2929;DHT22;1474;51.460;7.150;2022-08-21T08:04:57;20.10;99.90
2929;DHT22;1474;51.460;7.150;2022-08-21T08:07:23;20.20;99.90
2929;DHT22;1474;51.460;7.150;2022-08-21T08:09:49;20.20;99.90
2929;DHT22;1474;51.460;7.150;2022-08-21T08:12:14;20.30;99.90
2929;DHT22;1474;51.460;7.150;2022-08-21T08:14:40;20.40;99.90
2929;DHT22;1474;51.460;7.150;2022-08-21T08:17:06;20.40;99.90
2929;DHT22;1474;51.460;7.150;2022-08-21T08:19:31;20.40;99.90
2929;DHT22;1474;51.460;7.150;2022-08-21T08:21:57;20.50;99.90
2929;DHT22;1474;51.460;7.150;2022-08-21T08:24:23;20.50;99.90
2929;DHT22;1474;51.460;7.150;2022-08-21T08:26:49;20.60;99.90
2929;DHT22;1474;51.460;7.150;2022-08-21T08:29:14;20.70;99.90
2929;DHT22;1474;51.460;7.150;2022-08-21T08:31:40;20.70;99.90
2929;DHT22;1474;51.460;7.150;2022-08-21T08:34:06;20.70;99.90
2929;DHT22;1474;51.460;7.150;2022-08-21T08:36:36;20.80;99.90
2929;DHT22;1474;51.460;7.150;2022-08-21T08:39:05;20.80;99.90
2929;DHT22;1474;51.460;7.150;2022-08-21T08:41:31;21.00;99.90
2929;DHT22;1474;51.460;7.150;2022-08-21T08:44:07;20.90;99.90
2929;DHT22;1474;51.460;7.150;2022-08-21T08:46:53;21.00;99.90
2929;DHT22;1474;51.460;7.150;2022-08-21T08:49:24;21.10;99.90
2929;DHT22;1474;51.460;7.150;2022-08-21T08:52:05;21.20;99.90
2929;DHT22;1474;51.460;7.150;2022-08-21T08:54:59;21.30;99.90
2929;DHT22;1474;51.460;7.150;2022-08-21T08:57:26;21.40;99.90
2929;DHT22;1474;51.460;7.150;2022-08-21T08:59:56;21.50;99.90
2929;DHT22;1474;51.460;7.150;2022-08-21T09:02:23;21.50;99.90
2929;DHT22;1474;51.460;7.150;2022-08-21T09:04:50;21.60;99.90
2929;DHT22;1474;51.460;7.150;2022-08-21T09:10:17;21.90;99.90
2929;DHT22;1474;51.460;7.150;2022-08-21T09:13:07;22.00;99.90
2929;DHT22;1474;51.460;7.150;2022-08-21T09:16:05;22.20;99.70
2929;DHT22;1474;51.460;7.150;2022-08-21T09:18:51;22.20;98.80
2929;DHT22;1474;51.460;7.150;2022-08-21T09:27:00;22.30;99.60
2929;DHT22;1474;51.460;7.150;2022-08-21T09:29:31;22.40;99.10
2929;DHT22;1474;51.460;7.150;2022-08-21T09:31:58;22.50;97.70
2929;DHT22;1474;51.460;7.150;2022-08-21T09:34:33;22.60;98.10
2929;DHT22;1474;51.460;7.150;2022-08-21T09:36:58;22.70;98.00
2929;DHT22;1474;51.460;7.150;2022-08-21T09:39:43;22.70;96.50
2929;DHT22;1474;51.460;7.150;2022-08-21T09:42:09;22.80;97.20
2929;DHT22;1474;51.460;7.150;2022-08-21T09:44:38;22.80;97.10
2929;DHT22;1474;51.460;7.150;2022-08-21T09:47:07;22.90;97.10
2929;DHT22;1474;51.460;7.150;2022-08-21T09:49:36;23.00;97.10
2929;DHT22;1474;51.460;7.150;2022-08-21T09:52:06;23.10;96.40
2929;DHT22;1474;51.460;7.150;2022-08-21T09:54:40;23.20;96.30
2929;DHT22;1474;51.460;7.150;2022-08-21T09:59:53;23.70;95.90
2929;DHT22;1474;51.460;7.150;2022-08-21T10:02:24;23.80;95.30
2929;DHT22;1474;51.460;7.150;2022-08-21T10:04:52;24.00;94.90
2929;DHT22;1474;51.460;7.150;2022-08-21T10:07:21;24.00;94.80
2929;DHT22;1474;51.460;7.150;2022-08-21T10:09:58;24.10;95.10
2929;DHT22;1474;51.460;7.150;2022-08-21T10:12:32;24.50;95.00
2929;DHT22;1474;51.460;7.150;2022-08-21T10:15:30;24.60;94.70
2929;DHT22;1474;51.460;7.150;2022-08-21T10:21:10;24.90;92.70
2929;DHT22;1474;51.460;7.150;2022-08-21T10:29:09;25.00;93.00
2929;DHT22;1474;51.460;7.150;2022-08-21T10:31:49;25.10;92.90
2929;DHT22;1474;51.460;7.150;2022-08-21T10:48:34;25.80;92.80
2929;DHT22;1474;51.460;7.150;2022-08-21T10:51:33;26.00;90.60
2929;DHT22;1474;51.460;7.150;2022-08-21T10:54:13;26.20;91.20
2929;DHT22;1474;51.460;7.150;2022-08-21T10:56:43;26.10;89.10
2929;DHT22;1474;51.460;7.150;2022-08-21T11:02:15;26.30;89.90
2929;DHT22;1474;51.460;7.150;2022-08-21T11:09:43;26.40;90.00
2929;DHT22;1474;51.460;7.150;2022-08-21T11:14:54;26.40;89.50
2929;DHT22;1474;51.460;7.150;2022-08-21T11:17:34;26.40;87.30
2929;DHT22;1474;51.460;7.150;2022-08-21T11:20:28;26.00;91.00
2929;DHT22;1474;51.460;7.150;2022-08-21T11:22:58;25.90;89.90
2929;DHT22;1474;51.460;7.150;2022-08-21T11:25:41;25.90;90.20
2929;DHT22;1474;51.460;7.150;2022-08-21T11:28:15;25.80;88.50
2929;DHT22;1474;51.460;7.150;2022-08-21T11:36:34;26.00;90.90
2929;DHT22;1474;51.460;7.150;2022-08-21T11:39:41;26.30;90.40
2929;DHT22;1474;51.460;7.150;2022-08-21T11:42:13;26.40;89.50
2929;DHT22;1474;51.460;7.150;2022-08-21T11:45:08;26.30;90.10
2929;DHT22;1474;51.460;7.150;2022-08-21T11:50:19;26.30;89.40
2929;DHT22;1474;51.460;7.150;2022-08-21T11:52:50;26.20;87.50
2929;DHT22;1474;51.460;7.150;2022-08-21T11:57:58;26.00;89.20
2929;DHT22;1474;51.460;7.150;2022-08-21T12:00:31;26.10;89.40
2929;DHT22;1474;51.460;7.150;2022-08-21T12:03:10;26.00;88.50
2929;DHT22;1474;51.460;7.150;2022-08-21T12:05:40;26.10;88.20
2929;DHT22;1474;51.460;7.150;2022-08-21T12:10:46;26.20;87.30
2929;DHT22;1474;51.460;7.150;2022-08-21T12:13:51;26.20;86.30
2929;DHT22;1474;51.460;7.150;2022-08-21T12:19:08;26.50;88.40
2929;DHT22;1474;51.460;7.150;2022-08-21T12:24:17;26.70;87.70
2929;DHT22;1474;51.460;7.150;2022-08-21T12:30:05;26.70;83.80
2929;DHT22;1474;51.460;7.150;2022-08-21T12:35:20;26.90;85.70
2929;DHT22;1474;51.460;7.150;2022-08-21T12:37:52;27.10;83.10
2929;DHT22;1474;51.460;7.150;2022-08-21T12:40:25;26.90;86.20
2929;DHT22;1474;51.460;7.150;2022-08-21T12:42:56;27.10;86.10
2929;DHT22;1474;51.460;7.150;2022-08-21T12:45:32;26.90;87.90
2929;DHT22;1474;51.460;7.150;2022-08-21T12:48:11;27.10;82.90
2929;DHT22;1474;51.460;7.150;2022-08-21T12:50:53;27.10;85.70
2929;DHT22;1474;51.460;7.150;2022-08-21T12:53:48;27.20;83.30
2929;DHT22;1474;51.460;7.150;2022-08-21T12:56:17;27.00;83.30
2929;DHT22;1474;51.460;7.150;2022-08-21T12:58:54;26.80;82.20
2929;DHT22;1474;51.460;7.150;2022-08-21T13:01:33;26.80;84.60
2929;DHT22;1474;51.460;7.150;2022-08-21T13:04:18;26.90;85.30
2929;DHT22;1474;51.460;7.150;2022-08-21T13:06:54;26.70;85.40
2929;DHT22;1474;51.460;7.150;2022-08-21T13:09:26;26.50;83.80
2929;DHT22;1474;51.460;7.150;2022-08-21T13:11:52;26.50;84.10
2929;DHT22;1474;51.460;7.150;2022-08-21T13:14:31;26.40;83.30
2929;DHT22;1474;51.460;7.150;2022-08-21T13:16:59;26.40;85.30
2929;DHT22;1474;51.460;7.150;2022-08-21T13:19:26;26.70;85.90
2929;DHT22;1474;51.460;7.150;2022-08-21T13:21:52;26.70;84.60
2929;DHT22;1474;51.460;7.150;2022-08-21T13:24:34;26.70;84.60
2929;DHT22;1474;51.460;7.150;2022-08-21T13:27:00;26.90;86.90
2929;DHT22;1474;51.460;7.150;2022-08-21T13:29:32;27.10;85.50
2929;DHT22;1474;51.460;7.150;2022-08-21T13:32:02;27.40;85.90
2929;DHT22;1474;51.460;7.150;2022-08-21T13:34:35;27.40;84.00
2929;DHT22;1474;51.460;7.150;2022-08-21T13:37:04;27.40;85.00
2929;DHT22;1474;51.460;7.150;2022-08-21T13:39:31;27.30;83.90
2929;DHT22;1474;51.460;7.150;2022-08-21T13:42:00;27.20;83.40
2929;DHT22;1474;51.460;7.150;2022-08-21T13:44:44;26.90;85.20
2929;DHT22;1474;51.460;7.150;2022-08-21T13:47:13;27.00;86.40
2929;DHT22;1474;51.460;7.150;2022-08-21T13:49:42;27.20;84.50
2929;DHT22;1474;51.460;7.150;2022-08-21T13:52:23;27.30;86.40
2929;DHT22;1474;51.460;7.150;2022-08-21T13:54:58;27.40;86.00
2929;DHT22;1474;51.460;7.150;2022-08-21T13:57:27;27.30;83.40
2929;DHT22;1474;51.460;7.150;2022-08-21T14:00:28;27.10;85.10
2929;DHT22;1474;51.460;7.150;2022-08-21T14:03:00;27.00;85.40
2929;DHT22;1474;51.460;7.150;2022-08-21T14:05:29;27.10;84.20
2929;DHT22;1474;51.460;7.150;2022-08-21T14:08:04;27.00;83.40
2929;DHT22;1474;51.460;7.150;2022-08-21T14:10:31;27.00;83.50
2929;DHT22;1474;51.460;7.150;2022-08-21T14:13:03;27.10;83.70
2929;DHT22;1474;51.460;7.150;2022-08-21T14:15:31;27.30;84.10
2929;DHT22;1474;51.460;7.150;2022-08-21T14:18:16;27.50;82.80
2929;DHT22;1474;51.460;7.150;2022-08-21T14:20:43;27.50;82.20
2929;DHT22;1474;51.460;7.150;2022-08-21T14:23:10;27.60;85.30
2929;DHT22;1474;51.460;7.150;2022-08-21T14:25:44;27.40;83.60
2929;DHT22;1474;51.460;7.150;2022-08-21T14:28:26;27.20;83.10
2929;DHT22;1474;51.460;7.150;2022-08-21T14:30:52;27.00;83.70
2929;DHT22;1474;51.460;7.150;2022-08-21T14:33:26;27.00;83.90
2929;DHT22;1474;51.460;7.150;2022-08-21T14:35:52;27.10;85.10
2929;DHT22;1474;51.460;7.150;2022-08-21T14:38:21;27.10;82.60
2929;DHT22;1474;51.460;7.150;2022-08-21T14:40:51;26.90;82.90
2929;DHT22;1474;51.460;7.150;2022-08-21T14:43:18;26.80;83.20
2929;DHT22;1474;51.460;7.150;2022-08-21T14:45:45;26.80;83.60
2929;DHT22;1474;51.460;7.150;2022-08-21T14:48:10;26.70;82.50
2929;DHT22;1474;51.460;7.150;2022-08-21T14:50:37;26.60;84.10
2929;DHT22;1474;51.460;7.150;2022-08-21T14:53:03;26.60;84.70
2929;DHT22;1474;51.460;7.150;2022-08-21T14:55:30;26.50;83.20
2929;DHT22;1474;51.460;7.150;2022-08-21T14:58:16;26.50;84.20
2929;DHT22;1474;51.460;7.150;2022-08-21T15:00:42;26.50;85.70
2929;DHT22;1474;51.460;7.150;2022-08-21T15:03:07;26.60;81.90
2929;DHT22;1474;51.460;7.150;2022-08-21T15:05:33;26.60;81.80
2929;DHT22;1474;51.460;7.150;2022-08-21T15:07:59;26.70;84.10
2929;DHT22;1474;51.460;7.150;2022-08-21T15:10:25;26.70;82.30
2929;DHT22;1474;51.460;7.150;2022-08-21T15:12:50;26.80;83.90
2929;DHT22;1474;51.460;7.150;2022-08-21T15:15:16;26.70;81.90
2929;DHT22;1474;51.460;7.150;2022-08-21T15:17:42;26.80;82.20
2929;DHT22;1474;51.460;7.150;2022-08-21T15:20:08;26.80;82.20
2929;DHT22;1474;51.460;7.150;2022-08-21T15:22:34;26.60;83.10
2929;DHT22;1474;51.460;7.150;2022-08-21T15:25:01;26.70;82.60
2929;DHT22;1474;51.460;7.150;2022-08-21T15:27:27;26.70;81.90
2929;DHT22;1474;51.460;7.150;2022-08-21T15:29:53;26.80;82.10
2929;DHT22;1474;51.460;7.150;2022-08-21T15:32:28;27.00;81.00
2929;DHT22;1474;51.460;7.150;2022-08-21T15:34:56;26.90;81.20
2929;DHT22;1474;51.460;7.150;2022-08-21T15:37:23;27.00;82.00
2929;DHT22;1474;51.460;7.150;2022-08-21T15:39:50;27.00;82.10
2929;DHT22;1474;51.460;7.150;2022-08-21T15:42:16;26.70;81.00
2929;DHT22;1474;51.460;7.150;2022-08-21T15:44:43;26.70;82.00
2929;DHT22;1474;51.460;7.150;2022-08-21T15:47:15;26.80;82.70
2929;DHT22;1474;51.460;7.150;2022-08-21T15:49:42;26.90;79.70
2929;DHT22;1474;51.460;7.150;2022-08-21T15:52:11;26.90;80.90
2929;DHT22;1474;51.460;7.150;2022-08-21T15:54:37;27.00;79.10
2929;DHT22;1474;51.460;7.150;2022-08-21T15:57:03;26.90;79.50
2929;DHT22;1474;51.460;7.150;2022-08-21T15:59:36;27.10;82.20
2929;DHT22;1474;51.460;7.150;2022-08-21T16:02:05;27.20;81.90
2929;DHT22;1474;51.460;7.150;2022-08-21T16:04:31;27.30;79.30
2929;DHT22;1474;51.460;7.150;2022-08-21T16:06:57;27.50;80.30
2929;DHT22;1474;51.460;7.150;2022-08-21T16:09:23;27.50;81.10
2929;DHT22;1474;51.460;7.150;2022-08-21T16:11:48;27.30;79.90
2929;DHT22;1474;51.460;7.150;2022-08-21T16:14:15;27.40;81.40
2929;DHT22;1474;51.460;7.150;2022-08-21T16:16:42;27.50;79.00
2929;DHT22;1474;51.460;7.150;2022-08-21T16:19:09;27.50;81.00
2929;DHT22;1474;51.460;7.150;2022-08-21T16:21:35;27.50;81.10
2929;DHT22;1474;51.460;7.150;2022-08-21T16:24:01;27.30;81.30
2929;DHT22;1474;51.460;7.150;2022-08-21T16:26:28;27.20;81.60
2929;DHT22;1474;51.460;7.150;2022-08-21T16:28:56;26.90;81.10
2929;DHT22;1474;51.460;7.150;2022-08-21T16:31:24;26.90;81.90
2929;DHT22;1474;51.460;7.150;2022-08-21T16:33:54;26.80;81.60
2929;DHT22;1474;51.460;7.150;2022-08-21T16:36:20;26.70;81.80
2929;DHT22;1474;51.460;7.150;2022-08-21T16:38:47;26.60;80.80
2929;DHT22;1474;51.460;7.150;2022-08-21T16:41:16;26.50;81.50
2929;DHT22;1474;51.460;7.150;2022-08-21T16:43:46;26.50;81.70
2929;DHT22;1474;51.460;7.150;2022-08-21T16:46:14;26.40;81.60
2929;DHT22;1474;51.460;7.150;2022-08-21T16:48:42;26.30;80.50
2929;DHT22;1474;51.460;7.150;2022-08-21T16:51:10;26.10;81.70
2929;DHT22;1474;51.460;7.150;2022-08-21T16:53:36;26.10;83.60
2929;DHT22;1474;51.460;7.150;2022-08-21T16:56:03;26.10;83.90
2929;DHT22;1474;51.460;7.150;2022-08-21T16:58:31;26.00;83.50
2929;DHT22;1474;51.460;7.150;2022-08-21T17:01:06;25.90;83.40
2929;DHT22;1474;51.460;7.150;2022-08-21T17:03:38;25.90;83.20
2929;DHT22;1474;51.460;7.150;2022-08-21T17:06:05;25.70;83.30
2929;DHT22;1474;51.460;7.150;2022-08-21T17:08:31;25.60;83.40
2929;DHT22;1474;51.460;7.150;2022-08-21T17:10:57;25.60;83.40
2929;DHT22;1474;51.460;7.150;2022-08-21T17:13:24;25.60;84.10
2929;DHT22;1474;51.460;7.150;2022-08-21T17:15:51;25.70;83.60
2929;DHT22;1474;51.460;7.150;2022-08-21T17:18:19;25.60;82.40
2929;DHT22;1474;51.460;7.150;2022-08-21T17:20:46;25.60;83.30
2929;DHT22;1474;51.460;7.150;2022-08-21T17:23:13;25.60;83.70
2929;DHT22;1474;51.460;7.150;2022-08-21T17:25:42;25.60;84.30
2929;DHT22;1474;51.460;7.150;2022-08-21T17:28:21;25.60;83.70